sensor_id;sensor_type;location;lat;lon;timestamp;pressure;altitude;pressure_sealevel;temperature;humidity
57779;BME280;43608;49.486;9.640;2023-02-01T00:00:16;99158.00;;;3.30;94.24
57779;BME280;43608;49.486;9.640;2023-02-01T00:00:46;99154.53;;;3.29;94.17
57779;BME280;43608;49.486;9.640;2023-02-01T00:01:17;99153.59;;;3.29;94.21
57779;BME280;43608;49.486;9.640;2023-02-01T00:01:47;99150.91;;;3.26;94.13
57779;BME280;43608;49.486;9.640;2023-02-01T00:02:18;99171.47;;;3.41;94.51
57779;BME280;43608;49.486;9.640;2023-02-01T00:02:48;99177.66;;;3.43;94.64
57779;BME280;43608;49.486;9.640;2023-02-01T00:03:18;99175.94;;;3.43;94.47
57779;BME280;43608;49.486;9.640;2023-02-01T00:03:49;99161.84;;;3.40;94.43
57779;BME280;43608;49.486;9.640;2023-02-01T00:04:19;99162.72;;;3.40;94.33
57779;BME280;43608;49.486;9.640;2023-02-01T00:04:49;99177.66;;;3.43;94.24
57779;BME280;43608;49.486;9.640;2023-02-01T00:05:20;99173.31;;;3.43;94.78
57779;BME280;43608;49.486;9.640;2023-02-01T00:05:57;99137.84;;;3.27;94.40
57779;BME280;43608;49.486;9.640;2023-02-01T00:06:28;99167.16;;;3.43;94.50
57779;BME280;43608;49.486;9.640;2023-02-01T00:06:58;99153.97;;;3.40;94.46
57779;BME280;43608;49.486;9.640;2023-02-01T00:07:29;99161.78;;;3.38;94.42
57779;BME280;43608;49.486;9.640;2023-02-01T00:07:59;99154.72;;;3.36;94.63
57779;BME280;43608;49.486;9.640;2023-02-01T00:08:29;99150.38;;;3.36;94.51
57779;BME280;43608;49.486;9.640;2023-02-01T00:09:00;99158.19;;;3.35;94.35
57779;BME280;43608;49.486;9.640;2023-02-01T00:09:31;99153.81;;;3.35;94.40
57779;BME280;43608;49.486;9.640;2023-02-01T00:10:02;99162.84;;;3.43;94.54
57779;BME280;43608;49.486;9.640;2023-02-01T00:10:33;99156.59;;;3.40;94.65
57779;BME280;43608;49.486;9.640;2023-02-01T00:11:09;99142.34;;;3.31;94.45
57779;BME280;43608;49.486;9.640;2023-02-01T00:11:40;99161.00;;;3.41;94.52
57779;BME280;43608;49.486;9.640;2023-02-01T00:12:10;99164.66;;;3.46;94.42
57779;BME280;43608;49.486;9.640;2023-02-01T00:12:40;99158.47;;;3.44;94.50
57779;BME280;43608;49.486;9.640;2023-02-01T00:13:11;99146.75;;;3.33;94.52
57779;BME280;43608;49.486;9.640;2023-02-01T00:13:41;99162.03;;;3.46;94.35
57779;BME280;43608;49.486;9.640;2023-02-01T00:14:12;99150.38;;;3.36;94.44
57779;BME280;43608;49.486;9.640;2023-02-01T00:14:43;99148.75;;;3.40;94.28
57779;BME280;43608;49.486;9.640;2023-02-01T00:15:13;99148.00;;;3.44;94.31
57779;BME280;43608;49.486;9.640;2023-02-01T00:15:44;99153.16;;;3.41;94.32
57779;BME280;43608;49.486;9.640;2023-02-01T00:16:17;99155.06;;;3.46;94.34
57779;BME280;43608;49.486;9.640;2023-02-01T00:16:48;99158.47;;;3.44;94.50
57779;BME280;43608;49.486;9.640;2023-02-01T00:17:18;99143.50;;;3.40;94.37
57779;BME280;43608;49.486;9.640;2023-02-01T00:17:53;99150.59;;;3.44;94.32
57779;BME280;43608;49.486;9.640;2023-02-01T00:18:24;99150.59;;;3.44;94.38
57779;BME280;43608;49.486;9.640;2023-02-01T00:19:04;99153.28;;;3.45;94.50
57779;BME280;43608;49.486;9.640;2023-02-01T00:19:35;99134.56;;;3.33;94.57
57779;BME280;43608;49.486;9.640;2023-02-01T00:20:05;99147.81;;;3.39;94.40
57779;BME280;43608;49.486;9.640;2023-02-01T00:20:36;99106.78;;;3.11;94.42
57779;BME280;43608;49.486;9.640;2023-02-01T00:21:06;99158.47;;;3.44;94.74
57779;BME280;43608;49.486;9.640;2023-02-01T00:21:37;99145.31;;;3.42;95.03
57779;BME280;43608;49.486;9.640;2023-02-01T00:22:07;99161.09;;;3.44;94.79
57779;BME280;43608;49.486;9.640;2023-02-01T00:22:38;99138.00;;;3.32;94.58
57779;BME280;43608;49.486;9.640;2023-02-01T00:23:08;99154.97;;;3.43;94.89
57779;BME280;43608;49.486;9.640;2023-02-01T00:23:39;99139.78;;;3.33;94.59
57779;BME280;43608;49.486;9.640;2023-02-01T00:24:11;99162.84;;;3.43;94.82
57779;BME280;43608;49.486;9.640;2023-02-01T00:24:42;99147.78;;;3.38;94.78
57779;BME280;43608;49.486;9.640;2023-02-01T00:25:12;99141.47;;;3.31;94.89
57779;BME280;43608;49.486;9.640;2023-02-01T00:25:42;99150.41;;;3.38;94.75
57779;BME280;43608;49.486;9.640;2023-02-01T00:26:50;99132.59;;;3.27;95.08
57779;BME280;43608;49.486;9.640;2023-02-01T00:27:13;99160.22;;;3.43;94.94
57779;BME280;43608;49.486;9.640;2023-02-01T00:27:50;99091.34;;;2.93;94.85
57779;BME280;43608;49.486;9.640;2023-02-01T00:28:20;99153.06;;;3.39;95.17
57779;BME280;43608;49.486;9.640;2023-02-01T00:28:51;99147.91;;;3.41;95.16
57779;BME280;43608;49.486;9.640;2023-02-01T00:29:21;99140.84;;;3.38;95.02
57779;BME280;43608;49.486;9.640;2023-02-01T00:29:54;99163.72;;;3.44;94.77
57779;BME280;43608;49.486;9.640;2023-02-01T00:30:25;99135.38;;;3.32;94.62
57779;BME280;43608;49.486;9.640;2023-02-01T00:31:00;99177.75;;;3.46;94.81
57779;BME280;43608;49.486;9.640;2023-02-01T00:31:31;99152.22;;;3.40;94.63
57779;BME280;43608;49.486;9.640;2023-02-01T00:32:02;99138.94;;;3.34;94.57
57779;BME280;43608;49.486;9.640;2023-02-01T00:32:32;99160.06;;;3.39;94.68
57779;BME280;43608;49.486;9.640;2023-02-01T00:33:03;99157.47;;;3.40;94.42
57779;BME280;43608;49.486;9.640;2023-02-01T00:33:33;99162.03;;;3.46;94.63
57779;BME280;43608;49.486;9.640;2023-02-01T00:34:04;99135.19;;;3.26;94.54
57779;BME280;43608;49.486;9.640;2023-02-01T00:34:35;99154.78;;;3.37;94.77
57779;BME280;43608;49.486;9.640;2023-02-01T00:35:05;99148.63;;;3.37;94.56
57779;BME280;43608;49.486;9.640;2023-02-01T00:35:38;99164.66;;;3.46;94.39
57779;BME280;43608;49.486;9.640;2023-02-01T00:36:09;99163.72;;;3.44;94.64
57779;BME280;43608;49.486;9.640;2023-02-01T00:36:40;99149.47;;;3.36;94.57
57779;BME280;43608;49.486;9.640;2023-02-01T00:37:10;99159.25;;;3.41;94.36
57779;BME280;43608;49.486;9.640;2023-02-01T00:37:41;99152.97;;;3.36;94.73
57779;BME280;43608;49.486;9.640;2023-02-01T00:38:11;99165.28;;;3.39;94.76
57779;BME280;43608;49.486;9.640;2023-02-01T00:38:41;99161.84;;;3.40;94.58
57779;BME280;43608;49.486;9.640;2023-02-01T00:39:12;99169.00;;;3.45;94.59
57779;BME280;43608;49.486;9.640;2023-02-01T00:39:42;99165.34;;;3.40;94.92
57779;BME280;43608;49.486;9.640;2023-02-01T00:40:12;99145.03;;;3.33;94.76
57779;BME280;43608;49.486;9.640;2023-02-01T00:40:43;99160.94;;;3.39;94.60
57779;BME280;43608;49.486;9.640;2023-02-01T00:41:15;99165.53;;;3.46;94.45
57779;BME280;43608;49.486;9.640;2023-02-01T00:41:47;99162.75;;;3.42;94.35
57779;BME280;43608;49.486;9.640;2023-02-01T00:42:17;99154.91;;;3.42;94.54
57779;BME280;43608;49.486;9.640;2023-02-01T00:42:48;99165.53;;;3.46;94.63
57779;BME280;43608;49.486;9.640;2023-02-01T00:43:18;99155.69;;;3.39;94.63
57779;BME280;43608;49.486;9.640;2023-02-01T00:43:50;99159.50;;;3.49;94.29
57779;BME280;43608;49.486;9.640;2023-02-01T00:44:20;99151.41;;;3.41;94.11
57779;BME280;43608;49.486;9.640;2023-02-01T00:44:50;99169.91;;;3.46;94.27
57779;BME280;43608;49.486;9.640;2023-02-01T00:45:21;99160.28;;;3.46;94.41
57779;BME280;43608;49.486;9.640;2023-02-01T00:45:51;99169.16;;;3.50;94.39
57779;BME280;43608;49.486;9.640;2023-02-01T00:46:22;99167.41;;;3.51;94.21
57779;BME280;43608;49.486;9.640;2023-02-01T00:46:52;99151.34;;;3.40;94.28
57779;BME280;43608;49.486;9.640;2023-02-01T00:47:22;99160.28;;;3.46;94.33
57779;BME280;43608;49.486;9.640;2023-02-01T00:47:53;99160.28;;;3.46;94.34
57779;BME280;43608;49.486;9.640;2023-02-01T00:48:23;99167.41;;;3.51;94.18
57779;BME280;43608;49.486;9.640;2023-02-01T00:48:54;99155.06;;;3.46;94.32
57779;BME280;43608;49.486;9.640;2023-02-01T00:49:24;99132.84;;;3.35;94.22
57779;BME280;43608;49.486;9.640;2023-02-01T00:49:55;99148.75;;;3.40;94.28
57779;BME280;43608;49.486;9.640;2023-02-01T00:50:25;99162.03;;;3.46;94.46
57779;BME280;43608;49.486;9.640;2023-02-01T00:51:03;99161.97;;;3.44;94.48
57779;BME280;43608;49.486;9.640;2023-02-01T00:51:34;99137.97;;;3.30;94.07
57779;BME280;43608;49.486;9.640;2023-02-01T00:52:04;99161.97;;;3.44;94.30
57779;BME280;43608;49.486;9.640;2023-02-01T00:52:35;99161.19;;;3.47;94.46
57779;BME280;43608;49.486;9.640;2023-02-01T00:53:05;99161.91;;;3.43;94.48
57779;BME280;43608;49.486;9.640;2023-02-01T00:53:36;99169.03;;;3.47;94.44
57779;BME280;43608;49.486;9.640;2023-02-01T00:54:06;99153.81;;;3.35;94.61
57779;BME280;43608;49.486;9.640;2023-02-01T00:54:37;99171.66;;;3.47;94.32
57779;BME280;43608;49.486;9.640;2023-02-01T00:55:07;99148.53;;;3.34;94.28
57779;BME280;43608;49.486;9.640;2023-02-01T00:55:38;99163.78;;;3.47;94.60
57779;BME280;43608;49.486;9.640;2023-02-01T00:56:09;99161.03;;;3.42;94.49
57779;BME280;43608;49.486;9.640;2023-02-01T00:56:39;99157.38;;;3.37;94.61
57779;BME280;43608;49.486;9.640;2023-02-01T00:57:10;99148.63;;;3.37;94.51
57779;BME280;43608;49.486;9.640;2023-02-01T00:57:40;99161.91;;;3.43;94.59
57779;BME280;43608;49.486;9.640;2023-02-01T00:58:10;99149.47;;;3.36;94.48
57779;BME280;43608;49.486;9.640;2023-02-01T00:58:41;99146.88;;;3.36;94.67
57779;BME280;43608;49.486;9.640;2023-02-01T00:59:12;99154.81;;;3.39;94.64
57779;BME280;43608;49.486;9.640;2023-02-01T00:59:42;99161.13;;;3.45;94.61
57779;BME280;43608;49.486;9.640;2023-02-01T01:00:13;99157.50;;;3.42;94.21
57779;BME280;43608;49.486;9.640;2023-02-01T01:00:43;99146.88;;;3.36;94.44
57779;BME280;43608;49.486;9.640;2023-02-01T01:01:20;99165.59;;;3.48;94.54
57779;BME280;43608;49.486;9.640;2023-02-01T01:01:50;99157.47;;;3.40;94.37
57779;BME280;43608;49.486;9.640;2023-02-01T01:02:21;99171.56;;;3.44;94.47
57779;BME280;43608;49.486;9.640;2023-02-01T01:02:51;99152.19;;;3.39;94.38
57779;BME280;43608;49.486;9.640;2023-02-01T01:03:21;99159.31;;;3.43;94.54
57779;BME280;43608;49.486;9.640;2023-02-01T01:03:55;99148.75;;;3.40;94.36
57779;BME280;43608;49.486;9.640;2023-02-01T01:04:26;99159.41;;;3.46;94.00
57779;BME280;43608;49.486;9.640;2023-02-01T01:04:56;99168.25;;;3.50;94.14
57779;BME280;43608;49.486;9.640;2023-02-01T01:05:26;99135.22;;;3.27;94.24
57779;BME280;43608;49.486;9.640;2023-02-01T01:05:57;99154.09;;;3.44;94.14
57779;BME280;43608;49.486;9.640;2023-02-01T01:06:30;99163.78;;;3.47;94.04
57779;BME280;43608;49.486;9.640;2023-02-01T01:07:01;99147.94;;;3.42;94.12
57779;BME280;43608;49.486;9.640;2023-02-01T01:07:32;99155.94;;;3.47;94.16
57779;BME280;43608;49.486;9.640;2023-02-01T01:08:02;99147.16;;;3.45;94.12
57779;BME280;43608;49.486;9.640;2023-02-01T01:08:33;99168.31;;;3.51;94.10
57779;BME280;43608;49.486;9.640;2023-02-01T01:09:05;99170.94;;;3.51;93.85
57779;BME280;43608;49.486;9.640;2023-02-01T01:09:36;99154.19;;;3.46;94.18
57779;BME280;43608;49.486;9.640;2023-02-01T01:10:07;99168.25;;;3.50;94.05
57779;BME280;43608;49.486;9.640;2023-02-01T01:10:38;99148.94;;;3.46;93.93
57779;BME280;43608;49.486;9.640;2023-02-01T01:11:13;99158.72;;;3.52;94.05
57779;BME280;43608;49.486;9.640;2023-02-01T01:11:44;99141.75;;;3.40;94.07
57779;BME280;43608;49.486;9.640;2023-02-01T01:12:15;99156.81;;;3.46;93.90
57779;BME280;43608;49.486;9.640;2023-02-01T01:12:45;99162.13;;;3.49;93.82
57779;BME280;43608;49.486;9.640;2023-02-01T01:13:15;99158.66;;;3.50;94.01
57779;BME280;43608;49.486;9.640;2023-02-01T01:13:47;99142.69;;;3.42;94.13
57779;BME280;43608;49.486;9.640;2023-02-01T01:14:18;99164.88;;;3.54;93.74
57779;BME280;43608;49.486;9.640;2023-02-01T01:14:49;99165.69;;;3.51;94.20
57779;BME280;43608;49.486;9.640;2023-02-01T01:15:19;99154.22;;;3.47;93.96
57779;BME280;43608;49.486;9.640;2023-02-01T01:15:49;99141.78;;;3.42;93.96
57779;BME280;43608;49.486;9.640;2023-02-01T01:16:21;99169.28;;;3.55;93.90
57779;BME280;43608;49.486;9.640;2023-02-01T01:16:52;99143.50;;;3.40;93.97
57779;BME280;43608;49.486;9.640;2023-02-01T01:17:22;99161.28;;;3.50;93.92
57779;BME280;43608;49.486;9.640;2023-02-01T01:17:53;99164.03;;;3.55;93.64
57779;BME280;43608;49.486;9.640;2023-02-01T01:18:23;99159.59;;;3.52;94.02
57779;BME280;43608;49.486;9.640;2023-02-01T01:18:54;99159.63;;;3.54;93.57
57779;BME280;43608;49.486;9.640;2023-02-01T01:19:24;99100.84;;;3.17;93.69
57779;BME280;43608;49.486;9.640;2023-02-01T01:19:55;99156.94;;;3.51;93.73
57779;BME280;43608;49.486;9.640;2023-02-01T01:20:25;99151.56;;;3.46;93.62
57779;BME280;43608;49.486;9.640;2023-02-01T01:20:56;99164.94;;;3.55;93.94
57779;BME280;43608;49.486;9.640;2023-02-01T01:21:27;99159.59;;;3.52;93.86
57779;BME280;43608;49.486;9.640;2023-02-01T01:21:57;99145.59;;;3.52;93.91
57779;BME280;43608;49.486;9.640;2023-02-01T01:22:28;99146.34;;;3.47;93.95
57779;BME280;43608;49.486;9.640;2023-02-01T01:22:58;99162.38;;;3.57;94.01
57779;BME280;43608;49.486;9.640;2023-02-01T01:23:28;99141.16;;;3.49;94.19
57779;BME280;43608;49.486;9.640;2023-02-01T01:23:59;99169.41;;;3.58;93.89
57779;BME280;43608;49.486;9.640;2023-02-01T01:24:29;99155.31;;;3.54;94.11
57779;BME280;43608;49.486;9.640;2023-02-01T01:25:00;99153.56;;;3.55;93.90
57779;BME280;43608;49.486;9.640;2023-02-01T01:25:30;99144.72;;;3.51;94.05
57779;BME280;43608;49.486;9.640;2023-02-01T01:26:05;99155.31;;;3.54;93.82
57779;BME280;43608;49.486;9.640;2023-02-01T01:26:35;99142.00;;;3.48;93.88
57779;BME280;43608;49.486;9.640;2023-02-01T01:27:06;99145.56;;;3.50;93.98
57779;BME280;43608;49.486;9.640;2023-02-01T01:27:36;99141.16;;;3.49;94.00
57779;BME280;43608;49.486;9.640;2023-02-01T01:28:07;99122.19;;;3.29;94.07
57779;BME280;43608;49.486;9.640;2023-02-01T01:28:37;99152.63;;;3.53;94.08
57779;BME280;43608;49.486;9.640;2023-02-01T01:29:09;99120.50;;;3.31;94.10
57779;BME280;43608;49.486;9.640;2023-02-01T01:29:40;99154.38;;;3.54;94.12
57779;BME280;43608;49.486;9.640;2023-02-01T01:30:11;99140.03;;;3.41;94.38
57779;BME280;43608;49.486;9.640;2023-02-01T01:30:41;99159.75;;;3.57;94.38
57779;BME280;43608;49.486;9.640;2023-02-01T01:31:13;99153.44;;;3.50;93.94
57779;BME280;43608;49.486;9.640;2023-02-01T01:31:44;99150.06;;;3.54;94.09
57779;BME280;43608;49.486;9.640;2023-02-01T01:32:14;99138.38;;;3.44;94.35
57779;BME280;43608;49.486;9.640;2023-02-01T01:32:45;99101.03;;;3.23;94.23
57779;BME280;43608;49.486;9.640;2023-02-01T01:33:16;99166.69;;;3.56;94.43
57779;BME280;43608;49.486;9.640;2023-02-01T01:33:54;99157.88;;;3.53;94.30
57779;BME280;43608;49.486;9.640;2023-02-01T01:34:25;99141.06;;;3.46;94.24
57779;BME280;43608;49.486;9.640;2023-02-01T01:34:55;99145.66;;;3.53;94.30
57779;BME280;43608;49.486;9.640;2023-02-01T01:35:29;99149.06;;;3.51;94.64
57779;BME280;43608;49.486;9.640;2023-02-01T01:35:59;99142.00;;;3.48;94.54
57779;BME280;43608;49.486;9.640;2023-02-01T01:36:30;99146.34;;;3.47;94.35
57779;BME280;43608;49.486;9.640;2023-02-01T01:37:00;99130.47;;;3.43;94.32
57779;BME280;43608;49.486;9.640;2023-02-01T01:37:31;99148.28;;;3.53;94.34
57779;BME280;43608;49.486;9.640;2023-02-01T01:38:02;99142.16;;;3.53;94.22
57779;BME280;43608;49.486;9.640;2023-02-01T01:38:32;99146.31;;;3.46;94.46
57779;BME280;43608;49.486;9.640;2023-02-01T01:39:03;99128.78;;;3.43;94.47
57779;BME280;43608;49.486;9.640;2023-02-01T01:39:33;99134.09;;;3.46;94.32
57779;BME280;43608;49.486;9.640;2023-02-01T01:40:05;99150.88;;;3.53;94.38
57779;BME280;43608;49.486;9.640;2023-02-01T01:40:36;99154.34;;;3.52;94.63
57779;BME280;43608;49.486;9.640;2023-02-01T01:41:07;99147.34;;;3.51;94.64
57779;BME280;43608;49.486;9.640;2023-02-01T01:41:38;99164.03;;;3.55;94.59
57779;BME280;43608;49.486;9.640;2023-02-01T01:42:11;99126.16;;;3.43;94.59
57779;BME280;43608;49.486;9.640;2023-02-01T01:42:43;99147.44;;;3.54;94.55
57779;BME280;43608;49.486;9.640;2023-02-01T01:43:16;99147.41;;;3.53;94.21
57779;BME280;43608;49.486;9.640;2023-02-01T01:43:55;99141.34;;;3.55;94.43
57779;BME280;43608;49.486;9.640;2023-02-01T01:45:01;99146.53;;;3.54;94.21
57779;BME280;43608;49.486;9.640;2023-02-01T01:45:34;99122.41;;;3.37;94.49
57779;BME280;43608;49.486;9.640;2023-02-01T01:46:04;99144.81;;;3.54;94.18
57779;BME280;43608;49.486;9.640;2023-02-01T01:46:36;99136.94;;;3.54;94.27
57779;BME280;43608;49.486;9.640;2023-02-01T01:47:10;99111.09;;;3.38;94.41
57779;BME280;43608;49.486;9.640;2023-02-01T01:47:44;99122.63;;;3.43;94.04
57779;BME280;43608;49.486;9.640;2023-02-01T01:48:56;99121.78;;;3.44;94.31
57779;BME280;43608;49.486;9.640;2023-02-01T01:49:30;99129.88;;;3.52;94.42
57779;BME280;43608;49.486;9.640;2023-02-01T01:50:02;99110.22;;;3.37;94.22
57779;BME280;43608;49.486;9.640;2023-02-01T01:50:39;99141.34;;;3.55;94.48
57779;BME280;43608;49.486;9.640;2023-02-01T01:51:12;99134.25;;;3.51;94.29
57779;BME280;43608;49.486;9.640;2023-02-01T01:51:48;99126.38;;;3.51;94.41
57779;BME280;43608;49.486;9.640;2023-02-01T01:52:19;99130.69;;;3.49;94.56
57779;BME280;43608;49.486;9.640;2023-02-01T01:52:51;99129.00;;;3.51;94.35
57779;BME280;43608;49.486;9.640;2023-02-01T01:53:27;99133.22;;;3.46;94.39
57779;BME280;43608;49.486;9.640;2023-02-01T01:54:26;99134.34;;;3.54;94.13
57779;BME280;43608;49.486;9.640;2023-02-01T01:54:55;99118.28;;;3.43;94.45
57779;BME280;43608;49.486;9.640;2023-02-01T01:55:31;99117.41;;;3.44;94.23
57779;BME280;43608;49.486;9.640;2023-02-01T01:56:02;99125.44;;;3.49;94.75
57779;BME280;43608;49.486;9.640;2023-02-01T01:56:34;99130.69;;;3.49;94.23
57779;BME280;43608;49.486;9.640;2023-02-01T01:57:09;99123.81;;;3.53;94.60
57779;BME280;43608;49.486;9.640;2023-02-01T01:57:44;99138.66;;;3.54;94.22
57779;BME280;43608;49.486;9.640;2023-02-01T01:58:22;99129.88;;;3.52;94.22
57779;BME280;43608;49.486;9.640;2023-02-01T01:58:54;99140.50;;;3.56;94.27
57779;BME280;43608;49.486;9.640;2023-02-01T01:59:25;99140.50;;;3.56;94.26
57779;BME280;43608;49.486;9.640;2023-02-01T02:00:05;99123.44;;;3.42;94.49
57779;BME280;43608;49.486;9.640;2023-02-01T02:00:37;99115.72;;;3.45;94.33
57779;BME280;43608;49.486;9.640;2023-02-01T02:01:09;99114.72;;;3.41;94.63
57779;BME280;43608;49.486;9.640;2023-02-01T02:01:39;99129.88;;;3.52;94.25
57779;BME280;43608;49.486;9.640;2023-02-01T02:02:10;99142.28;;;3.57;94.26
57779;BME280;43608;49.486;9.640;2023-02-01T02:02:43;99137.00;;;3.56;94.23
57779;BME280;43608;49.486;9.640;2023-02-01T02:03:20;99145.72;;;3.56;94.33
57779;BME280;43608;49.486;9.640;2023-02-01T02:03:52;99119.25;;;3.47;94.40
57779;BME280;43608;49.486;9.640;2023-02-01T02:04:23;99125.41;;;3.47;94.42
57779;BME280;43608;49.486;9.640;2023-02-01T02:04:53;99125.47;;;3.51;94.29
57779;BME280;43608;49.486;9.640;2023-02-01T02:05:24;99135.22;;;3.55;94.62
57779;BME280;43608;49.486;9.640;2023-02-01T02:05:58;99104.19;;;3.40;94.18
57779;BME280;43608;49.486;9.640;2023-02-01T02:06:37;99140.50;;;3.56;94.49
57779;BME280;43608;49.486;9.640;2023-02-01T02:07:23;99132.63;;;3.56;94.17
57779;BME280;43608;49.486;9.640;2023-02-01T02:07:58;99130.91;;;3.57;94.43
57779;BME280;43608;49.486;9.640;2023-02-01T02:08:29;99087.44;;;3.35;94.40
57779;BME280;43608;49.486;9.640;2023-02-01T02:08:59;99119.41;;;3.52;94.04
57779;BME280;43608;49.486;9.640;2023-02-01T02:09:30;99122.03;;;3.52;94.38
57779;BME280;43608;49.486;9.640;2023-02-01T02:10:03;99132.75;;;3.59;94.22
57779;BME280;43608;49.486;9.640;2023-02-01T02:10:36;99130.13;;;3.59;94.30
57779;BME280;43608;49.486;9.640;2023-02-01T02:11:25;99134.41;;;3.57;94.17
57779;BME280;43608;49.486;9.640;2023-02-01T02:11:55;99126.56;;;3.57;94.25
57779;BME280;43608;49.486;9.640;2023-02-01T02:12:26;99113.22;;;3.50;94.09
57779;BME280;43608;49.486;9.640;2023-02-01T02:12:56;99106.09;;;3.45;94.39
57779;BME280;43608;49.486;9.640;2023-02-01T02:13:37;99125.72;;;3.58;94.21
57779;BME280;43608;49.486;9.640;2023-02-01T02:14:11;99112.47;;;3.54;94.21
57779;BME280;43608;49.486;9.640;2023-02-01T02:14:42;99109.75;;;3.51;94.27
57779;BME280;43608;49.486;9.640;2023-02-01T02:15:14;99120.47;;;3.58;94.23
57779;BME280;43608;49.486;9.640;2023-02-01T02:16:17;99111.63;;;3.55;94.35
57779;BME280;43608;49.486;9.640;2023-02-01T02:17:31;99109.00;;;3.55;93.92
57779;BME280;43608;49.486;9.640;2023-02-01T02:18:18;99053.91;;;3.23;94.12
57779;BME280;43608;49.486;9.640;2023-02-01T02:27:14;99107.31;;;3.57;93.99
57779;BME280;43608;49.486;9.640;2023-02-01T02:32:23;99107.31;;;3.57;94.53
57779;BME280;43608;49.486;9.640;2023-02-01T02:33:55;99104.66;;;3.55;94.39
57779;BME280;43608;49.486;9.640;2023-02-01T02:34:39;99088.66;;;3.46;94.34
57779;BME280;43608;49.486;9.640;2023-02-01T02:35:24;99104.56;;;3.52;94.40
57779;BME280;43608;49.486;9.640;2023-02-01T02:37:26;99101.13;;;3.55;94.45
57779;BME280;43608;49.486;9.640;2023-02-01T02:38:51;99096.81;;;3.55;94.53
57779;BME280;43608;49.486;9.640;2023-02-01T02:40:36;99094.19;;;3.55;94.53
57779;BME280;43608;49.486;9.640;2023-02-01T02:41:19;99016.00;;;3.11;94.59
57779;BME280;43608;49.486;9.640;2023-02-01T02:43:41;99089.75;;;3.53;94.17
57779;BME280;43608;49.486;9.640;2023-02-01T02:46:37;99085.13;;;3.45;94.37
57779;BME280;43608;49.486;9.640;2023-02-01T02:47:28;99095.03;;;3.54;94.36
57779;BME280;43608;49.486;9.640;2023-02-01T02:48:11;99090.66;;;3.55;94.44
57779;BME280;43608;49.486;9.640;2023-02-01T02:48:49;99079.25;;;3.53;94.54
57779;BME280;43608;49.486;9.640;2023-02-01T02:50:10;99094.19;;;3.55;94.53
57779;BME280;43608;49.486;9.640;2023-02-01T02:51:06;99078.38;;;3.54;94.75
57779;BME280;43608;49.486;9.640;2023-02-01T02:52:01;99055.31;;;3.42;94.46
57779;BME280;43608;49.486;9.640;2023-02-01T02:53:03;99070.38;;;3.47;94.56
57779;BME280;43608;49.486;9.640;2023-02-01T02:53:58;99067.88;;;3.52;94.59
57779;BME280;43608;49.486;9.640;2023-02-01T02:54:50;99050.09;;;3.42;94.53
57779;BME280;43608;49.486;9.640;2023-02-01T02:55:23;99048.22;;;3.38;94.53
57779;BME280;43608;49.486;9.640;2023-02-01T02:55:55;99064.28;;;3.49;94.82
57779;BME280;43608;49.486;9.640;2023-02-01T02:56:46;99079.34;;;3.56;94.88
57779;BME280;43608;49.486;9.640;2023-02-01T02:57:40;99059.97;;;3.51;94.83
57779;BME280;43608;49.486;9.640;2023-02-01T02:58:31;99065.25;;;3.52;94.51
57779;BME280;43608;49.486;9.640;2023-02-01T02:59:22;99063.63;;;3.56;94.62
57779;BME280;43608;49.486;9.640;2023-02-01T03:00:16;99051.25;;;3.52;94.44
57779;BME280;43608;49.486;9.640;2023-02-01T03:01:06;99062.72;;;3.55;94.67
57779;BME280;43608;49.486;9.640;2023-02-01T03:01:56;99067.88;;;3.52;94.62
57779;BME280;43608;49.486;9.640;2023-02-01T03:02:46;99082.84;;;3.56;94.75
57779;BME280;43608;49.486;9.640;2023-02-01T03:03:39;99062.72;;;3.55;94.59
57779;BME280;43608;49.486;9.640;2023-02-01T03:04:28;99065.34;;;3.55;94.58
57779;BME280;43608;49.486;9.640;2023-02-01T03:04:58;99069.69;;;3.55;94.50
57779;BME280;43608;49.486;9.640;2023-02-01T03:05:35;99059.09;;;3.50;94.67
57779;BME280;43608;49.486;9.640;2023-02-01T03:06:13;99059.16;;;3.53;94.58
57779;BME280;43608;49.486;9.640;2023-02-01T03:06:45;99041.31;;;3.40;94.63
57779;BME280;43608;49.486;9.640;2023-02-01T03:08:16;99066.28;;;3.57;94.52
57779;BME280;43608;49.486;9.640;2023-02-01T03:08:47;99064.44;;;3.55;94.59
57779;BME280;43608;49.486;9.640;2023-02-01T03:09:24;99037.84;;;3.41;94.61
57779;BME280;43608;49.486;9.640;2023-02-01T03:09:56;99037.75;;;3.38;94.52
57779;BME280;43608;49.486;9.640;2023-02-01T03:10:30;99061.94;;;3.58;94.50
57779;BME280;43608;49.486;9.640;2023-02-01T03:11:06;99065.25;;;3.52;94.45
57779;BME280;43608;49.486;9.640;2023-02-01T03:11:38;99060.91;;;3.53;94.40
57779;BME280;43608;49.486;9.640;2023-02-01T03:12:28;99061.81;;;3.55;94.65
57779;BME280;43608;49.486;9.640;2023-02-01T03:14:02;99068.84;;;3.56;94.66
57779;BME280;43608;49.486;9.640;2023-02-01T03:14:36;99060.91;;;3.53;94.88
57779;BME280;43608;49.486;9.640;2023-02-01T03:15:10;99061.75;;;3.52;94.64
57779;BME280;43608;49.486;9.640;2023-02-01T03:16:27;99059.25;;;3.56;94.59
57779;BME280;43608;49.486;9.640;2023-02-01T03:17:04;99053.81;;;3.49;94.49
57779;BME280;43608;49.486;9.640;2023-02-01T03:17:40;99038.56;;;3.37;94.52
57779;BME280;43608;49.486;9.640;2023-02-01T03:18:20;99070.69;;;3.58;94.54
57779;BME280;43608;49.486;9.640;2023-02-01T03:19:16;99068.94;;;3.59;94.63
57779;BME280;43608;49.486;9.640;2023-02-01T03:19:50;99007.66;;;3.25;94.48
57779;BME280;43608;49.486;9.640;2023-02-01T03:20:22;99036.16;;;3.43;94.53
57779;BME280;43608;49.486;9.640;2023-02-01T03:20:55;99053.22;;;3.59;94.36
57779;BME280;43608;49.486;9.640;2023-02-01T03:21:41;99055.78;;;3.57;94.35
57779;BME280;43608;49.486;9.640;2023-02-01T03:22:15;99033.34;;;3.37;94.37
57779;BME280;43608;49.486;9.640;2023-02-01T03:22:48;99006.97;;;3.30;94.47
57779;BME280;43608;49.486;9.640;2023-02-01T03:23:23;99039.94;;;3.53;94.42
57779;BME280;43608;49.486;9.640;2023-02-01T03:24:01;99048.63;;;3.52;94.42
57779;BME280;43608;49.486;9.640;2023-02-01T03:24:37;99058.44;;;3.59;94.45
57779;BME280;43608;49.486;9.640;2023-02-01T03:25:13;99027.41;;;3.42;94.32
57779;BME280;43608;49.486;9.640;2023-02-01T03:25:47;99040.84;;;3.55;94.38
57779;BME280;43608;49.486;9.640;2023-02-01T03:26:20;99054.06;;;3.58;94.61
57779;BME280;43608;49.486;9.640;2023-02-01T03:26:54;99057.50;;;3.55;94.19
57779;BME280;43608;49.486;9.640;2023-02-01T03:28:07;99062.84;;;3.60;94.24